createdAt,value
2018-06-14T00:00:49.775Z,23.70
2018-06-14T00:03:18.134Z,23.70
2018-06-14T00:05:46.517Z,23.70
2018-06-14T00:08:14.932Z,23.70
2018-06-14T00:10:43.308Z,23.70
2018-06-14T00:13:11.669Z,23.70
2018-06-14T00:15:40.063Z,23.70
2018-06-14T00:18:08.469Z,23.70
2018-06-14T00:20:36.863Z,23.70
2018-06-14T00:23:05.391Z,23.70
2018-06-14T00:25:33.755Z,23.70
2018-06-14T00:28:02.105Z,23.70
2018-06-14T00:30:30.447Z,23.70
2018-06-14T00:32:58.865Z,23.70
2018-06-14T00:35:27.302Z,23.70
2018-06-14T00:37:55.795Z,23.70
2018-06-14T00:40:24.162Z,23.70
2018-06-14T00:42:52.615Z,23.70
2018-06-14T00:45:21.034Z,23.70
2018-06-14T00:47:49.374Z,23.70
2018-06-14T00:50:17.716Z,23.70
2018-06-14T00:52:46.148Z,23.70
2018-06-14T00:55:14.489Z,23.70
2018-06-14T00:57:42.911Z,23.70
2018-06-14T01:00:11.252Z,23.70
2018-06-14T01:02:39.579Z,23.70
2018-06-14T01:05:08.032Z,23.70
2018-06-14T01:07:36.414Z,23.70
2018-06-14T01:10:04.908Z,23.70
2018-06-14T01:12:33.292Z,23.70
2018-06-14T01:15:01.749Z,23.70
2018-06-14T01:17:30.103Z,23.60
2018-06-14T01:19:58.568Z,23.70
2018-06-14T01:22:26.984Z,23.70
2018-06-14T01:24:55.329Z,23.60
2018-06-14T01:27:23.695Z,23.60
2018-06-14T01:29:52.124Z,23.60
2018-06-14T01:32:20.457Z,23.70
2018-06-14T01:34:48.902Z,23.60
2018-06-14T01:37:25.630Z,23.60
2018-06-14T01:39:53.997Z,23.60
2018-06-14T01:42:22.335Z,23.60
2018-06-14T01:44:50.709Z,23.60
2018-06-14T01:47:19.227Z,23.60
2018-06-14T01:52:15.789Z,23.60
2018-06-14T01:54:44.201Z,23.60
2018-06-14T01:57:12.544Z,23.60
2018-06-14T01:59:40.956Z,23.60
2018-06-14T02:02:09.343Z,23.60
2018-06-14T02:04:37.719Z,23.60
2018-06-14T02:07:06.169Z,23.60
2018-06-14T02:09:34.572Z,23.60
2018-06-14T02:12:02.929Z,23.60
2018-06-14T02:14:31.351Z,23.50
2018-06-14T02:16:59.833Z,23.60
2018-06-14T02:19:28.227Z,23.60
2018-06-14T02:21:56.571Z,23.60
2018-06-14T02:24:25.035Z,23.60
2018-06-14T02:26:53.373Z,23.60
2018-06-14T02:29:21.839Z,23.60
2018-06-14T02:31:50.251Z,23.60
2018-06-14T02:34:18.697Z,23.60
2018-06-14T02:36:47.073Z,23.60
2018-06-14T02:39:15.411Z,23.60
2018-06-14T02:41:43.809Z,23.60
2018-06-14T02:44:12.322Z,23.60
2018-06-14T02:46:40.706Z,23.60
2018-06-14T02:49:09.085Z,23.60
2018-06-14T02:51:37.421Z,23.60
2018-06-14T02:54:05.878Z,23.60
2018-06-14T02:56:34.228Z,23.50
2018-06-14T02:59:02.716Z,23.60
2018-06-14T03:01:31.111Z,23.50
2018-06-14T03:04:01.966Z,23.50
2018-06-14T03:06:30.323Z,23.50
2018-06-14T03:08:58.764Z,23.50
2018-06-14T03:11:27.197Z,23.50
2018-06-14T03:13:55.684Z,23.60
2018-06-14T03:16:24.077Z,23.50
2018-06-14T03:18:52.727Z,23.50
2018-06-14T03:21:21.120Z,23.50
2018-06-14T03:23:49.515Z,23.50
2018-06-14T03:26:17.909Z,23.50
2018-06-14T03:28:46.391Z,23.50
2018-06-14T03:31:14.761Z,23.50
2018-06-14T03:33:43.143Z,23.50
2018-06-14T03:36:11.715Z,23.50
2018-06-14T03:38:40.067Z,23.50
2018-06-14T03:41:08.447Z,23.50
2018-06-14T03:43:36.848Z,23.50
2018-06-14T03:46:05.189Z,23.50
2018-06-14T03:48:33.622Z,23.50
2018-06-14T03:51:01.951Z,23.50
2018-06-14T03:53:30.367Z,23.50
2018-06-14T03:55:58.702Z,23.50
2018-06-14T03:58:27.083Z,23.50
2018-06-14T04:00:55.508Z,23.50
2018-06-14T04:03:23.865Z,23.50
2018-06-14T04:05:52.251Z,23.50
2018-06-14T04:08:20.789Z,23.50
2018-06-14T04:10:49.318Z,23.50
2018-06-14T04:13:17.767Z,23.50
2018-06-14T04:15:46.255Z,23.50
2018-06-14T04:18:14.611Z,23.50
2018-06-14T04:20:42.946Z,23.50
2018-06-14T04:23:11.289Z,23.50
2018-06-14T04:25:39.988Z,23.50
2018-06-14T04:28:08.341Z,23.50
2018-06-14T04:33:04.989Z,23.50
2018-06-14T04:35:33.334Z,23.50
2018-06-14T04:38:01.725Z,23.50
2018-06-14T04:40:30.073Z,23.50
2018-06-14T04:42:58.431Z,23.50
2018-06-14T04:45:26.923Z,23.50
2018-06-14T04:47:55.359Z,23.50
2018-06-14T04:50:23.819Z,23.50
2018-06-14T04:52:52.261Z,23.50
2018-06-14T04:55:20.870Z,23.50
2018-06-14T04:57:49.233Z,23.50
2018-06-14T05:00:17.650Z,23.50
2018-06-14T05:02:46.055Z,23.50
2018-06-14T05:05:14.470Z,23.50
2018-06-14T05:07:42.888Z,23.50
2018-06-14T05:10:11.311Z,23.50
2018-06-14T05:12:39.695Z,23.50
2018-06-14T05:15:08.102Z,23.50
2018-06-14T05:17:36.708Z,23.50
2018-06-14T05:20:05.481Z,23.50
2018-06-14T05:22:33.894Z,23.60
2018-06-14T05:25:02.416Z,23.50
2018-06-14T05:27:30.774Z,23.50
2018-06-14T05:29:59.126Z,23.50
2018-06-14T05:32:27.651Z,23.50
2018-06-14T05:34:56.120Z,23.50
2018-06-14T05:37:24.512Z,23.50
2018-06-14T05:39:52.942Z,23.50
2018-06-14T05:42:21.315Z,23.40
2018-06-14T05:44:49.622Z,23.40
2018-06-14T05:47:18.126Z,23.50
2018-06-14T05:49:46.567Z,23.50
2018-06-14T05:52:14.994Z,23.50
2018-06-14T05:54:43.368Z,23.50
2018-06-14T05:57:11.756Z,23.50
2018-06-14T05:59:40.103Z,23.50
2018-06-14T06:02:08.468Z,23.50
2018-06-14T06:04:36.849Z,23.60
2018-06-14T06:07:05.337Z,23.60
2018-06-14T06:09:33.768Z,23.60
2018-06-14T06:12:02.200Z,23.60
2018-06-14T06:14:30.736Z,23.70
2018-06-14T06:16:59.315Z,23.70
2018-06-14T06:19:27.684Z,23.70
2018-06-14T06:21:56.145Z,23.70
2018-06-14T06:24:24.579Z,23.70
2018-06-14T06:26:53.880Z,23.70
2018-06-14T06:29:22.337Z,23.70
2018-06-14T06:31:50.726Z,23.80
2018-06-14T06:34:19.102Z,23.80
2018-06-14T06:36:47.570Z,23.80
2018-06-14T06:39:15.930Z,23.80
2018-06-14T06:41:44.382Z,23.80
2018-06-14T06:44:12.800Z,23.80
2018-06-14T06:46:41.318Z,23.80
2018-06-14T06:49:09.674Z,23.80
2018-06-14T06:51:38.059Z,23.80
2018-06-14T06:54:06.530Z,23.80
2018-06-14T06:56:34.939Z,23.80
2018-06-14T06:59:03.299Z,23.80
2018-06-14T07:01:31.725Z,23.80
2018-06-14T07:04:00.220Z,23.80
2018-06-14T07:06:28.560Z,23.80
2018-06-14T07:08:56.922Z,23.80
2018-06-14T07:11:25.334Z,23.80
2018-06-14T07:13:53.691Z,23.80
2018-06-14T07:16:22.301Z,23.80
2018-06-14T07:18:50.636Z,23.80
2018-06-14T07:21:19.153Z,23.80
2018-06-14T07:23:47.558Z,23.80
2018-06-14T07:26:15.956Z,23.70
2018-06-14T07:28:44.304Z,23.80
2018-06-14T07:31:12.699Z,23.80
2018-06-14T07:33:41.289Z,23.80
2018-06-14T07:36:09.636Z,23.80
2018-06-14T07:38:38.036Z,23.80
2018-06-14T07:41:06.410Z,23.80
2018-06-14T07:43:34.896Z,23.80
2018-06-14T07:46:03.341Z,23.80
2018-06-14T07:48:31.698Z,23.80
2018-06-14T07:51:00.068Z,23.80
2018-06-14T07:53:28.646Z,23.80
2018-06-14T07:55:56.986Z,23.80
2018-06-14T07:58:25.453Z,23.80
2018-06-14T08:00:53.875Z,23.90
2018-06-14T08:03:22.266Z,23.90
2018-06-14T08:05:50.685Z,23.90
2018-06-14T08:08:19.009Z,24.00
2018-06-14T08:10:47.334Z,24.00
2018-06-14T08:13:15.724Z,23.90
2018-06-14T08:15:44.202Z,24.00
2018-06-14T08:18:12.888Z,24.00
2018-06-14T08:20:41.239Z,24.00
2018-06-14T08:23:09.644Z,24.00
2018-06-14T08:28:06.271Z,24.00
2018-06-14T08:33:02.879Z,24.00
2018-06-14T08:35:31.320Z,24.00
2018-06-14T08:37:59.769Z,24.00
2018-06-14T08:40:28.148Z,24.00
2018-06-14T08:42:56.604Z,24.00
2018-06-14T08:45:24.977Z,24.00
2018-06-14T08:47:53.363Z,23.90
2018-06-14T08:50:21.730Z,24.00
2018-06-14T08:52:50.140Z,24.00
2018-06-14T08:55:18.555Z,23.90
2018-06-14T08:57:46.942Z,24.00
2018-06-14T09:00:15.398Z,24.00
2018-06-14T09:02:43.736Z,24.00
2018-06-14T09:05:12.210Z,24.00
2018-06-14T09:07:40.632Z,24.00
2018-06-14T09:10:09.016Z,24.00
2018-06-14T09:12:37.576Z,24.00
2018-06-14T09:15:06.052Z,24.00
2018-06-14T09:17:34.424Z,24.00
2018-06-14T09:20:02.782Z,24.00
2018-06-14T09:22:31.192Z,24.00
2018-06-14T09:24:59.530Z,24.00
2018-06-14T09:27:28.027Z,24.00
2018-06-14T09:29:56.446Z,24.00
2018-06-14T09:32:24.831Z,24.00
2018-06-14T09:34:53.214Z,24.00
2018-06-14T09:37:21.582Z,24.00
2018-06-14T09:39:50.019Z,24.10
2018-06-14T09:42:18.370Z,24.00
2018-06-14T09:44:46.952Z,24.10
2018-06-14T09:47:15.404Z,24.10
2018-06-14T09:49:43.761Z,24.10
2018-06-14T09:52:12.173Z,24.10
2018-06-14T09:54:40.600Z,24.10
2018-06-14T09:57:08.958Z,24.10
2018-06-14T09:59:37.366Z,24.10
2018-06-14T10:02:05.908Z,24.10
2018-06-14T10:04:34.318Z,24.20
2018-06-14T10:07:02.740Z,24.20
2018-06-14T10:09:31.161Z,24.20
2018-06-14T10:11:59.532Z,24.20
2018-06-14T10:14:27.966Z,24.20
2018-06-14T10:16:56.404Z,24.40
2018-06-14T10:19:24.828Z,24.40
2018-06-14T10:21:53.213Z,24.40
2018-06-14T10:24:21.635Z,24.40
2018-06-14T10:26:49.994Z,24.40
2018-06-14T10:29:18.414Z,24.40
2018-06-14T10:31:46.784Z,24.40
2018-06-14T10:34:15.192Z,24.40
2018-06-14T10:36:43.574Z,24.40
2018-06-14T10:39:12.003Z,24.50
2018-06-14T10:41:40.534Z,24.50
2018-06-14T10:44:09.066Z,24.50
2018-06-14T10:49:05.703Z,24.40
2018-06-14T10:51:34.089Z,24.40
2018-06-14T10:54:02.455Z,24.30
2018-06-14T10:56:30.933Z,24.30
2018-06-14T10:58:59.301Z,24.30
2018-06-14T11:01:27.685Z,24.30
2018-06-14T11:03:56.121Z,24.30
2018-06-14T11:06:24.493Z,24.30
2018-06-14T11:08:52.822Z,24.30
2018-06-14T11:11:21.201Z,24.30
2018-06-14T11:13:49.705Z,24.30
2018-06-14T11:16:18.048Z,24.30
2018-06-14T11:18:46.548Z,24.30
2018-06-14T11:21:14.961Z,24.30
2018-06-14T11:26:11.589Z,24.30
2018-06-14T11:31:08.056Z,24.30
2018-06-14T11:33:36.539Z,24.30
2018-06-14T11:36:04.961Z,24.20
2018-06-14T11:38:33.868Z,24.30
2018-06-14T11:41:02.245Z,24.30
2018-06-14T11:43:30.773Z,24.20
2018-06-14T11:45:59.204Z,24.20
2018-06-14T11:48:27.595Z,24.20
2018-06-14T11:50:56.125Z,24.20
2018-06-14T11:53:24.737Z,24.20
2018-06-14T11:55:53.144Z,24.20
2018-06-14T11:58:21.549Z,24.20
2018-06-14T12:00:49.964Z,24.20
2018-06-14T12:03:18.411Z,24.20
2018-06-14T12:08:14.970Z,24.20
2018-06-14T12:10:43.405Z,24.30
2018-06-14T12:13:11.777Z,24.20
2018-06-14T12:15:40.149Z,24.20
2018-06-14T12:18:08.631Z,24.20
2018-06-14T12:20:37.345Z,24.20
2018-06-14T12:23:05.825Z,24.20
2018-06-14T12:25:34.512Z,24.20
2018-06-14T12:28:02.857Z,24.20
2018-06-14T12:30:31.212Z,24.20
2018-06-14T12:32:59.991Z,24.20
2018-06-14T12:35:28.367Z,24.20
2018-06-14T12:40:24.838Z,24.20
2018-06-14T12:42:53.189Z,24.20
2018-06-14T12:45:21.621Z,24.20
2018-06-14T12:47:50.022Z,24.20
2018-06-14T12:50:18.437Z,24.20
2018-06-14T12:52:47.140Z,24.20
2018-06-14T12:55:15.673Z,24.20
2018-06-14T12:57:44.039Z,24.20
2018-06-14T13:00:12.435Z,24.20
2018-06-14T13:02:40.911Z,24.20
2018-06-14T13:05:09.339Z,24.20
2018-06-14T13:07:37.865Z,24.20
2018-06-14T13:10:06.327Z,24.20
2018-06-14T13:12:34.847Z,24.20
2018-06-14T13:15:03.339Z,24.20
2018-06-14T13:17:31.678Z,24.20
2018-06-14T13:20:00.066Z,24.20
2018-06-14T13:22:30.457Z,24.20
2018-06-14T13:24:58.921Z,24.20
2018-06-14T13:27:27.367Z,24.20
2018-06-14T13:29:55.912Z,24.20
2018-06-14T13:32:24.351Z,24.20
2018-06-14T13:34:52.829Z,24.30
2018-06-14T13:37:21.195Z,24.20
2018-06-14T13:39:49.587Z,24.20
2018-06-14T13:44:46.167Z,24.20
2018-06-14T13:47:14.534Z,24.20
2018-06-14T13:49:42.935Z,24.20
2018-06-14T13:52:11.343Z,24.20
2018-06-14T13:54:39.703Z,24.20
2018-06-14T13:57:08.062Z,24.20
2018-06-14T13:59:36.488Z,24.20
2018-06-14T14:04:33.057Z,24.20
2018-06-14T14:07:04.727Z,24.20
2018-06-14T14:09:33.514Z,24.20
2018-06-14T14:12:01.929Z,24.20
2018-06-14T14:14:30.685Z,24.20
2018-06-14T14:16:59.451Z,24.30
2018-06-14T14:19:27.838Z,24.20
2018-06-14T14:21:56.229Z,24.20
2018-06-14T14:24:24.695Z,24.20
2018-06-14T14:26:53.147Z,24.20
2018-06-14T14:29:21.659Z,24.30
2018-06-14T14:31:50.035Z,24.30
2018-06-14T14:34:18.389Z,24.30
2018-06-14T14:36:46.860Z,24.30
2018-06-14T14:39:15.215Z,24.30
2018-06-14T14:41:43.719Z,24.30
2018-06-14T14:44:12.117Z,24.30
2018-06-14T14:46:40.545Z,24.30
2018-06-14T14:49:08.963Z,24.30
2018-06-14T14:51:37.379Z,24.30
2018-06-14T14:54:05.808Z,24.30
2018-06-14T14:56:34.165Z,24.40
2018-06-14T14:59:02.645Z,24.30
2018-06-14T15:01:31.293Z,24.30
2018-06-14T15:03:59.687Z,24.30
2018-06-14T15:08:56.292Z,24.30
2018-06-14T15:11:25.034Z,24.30
2018-06-14T15:13:53.462Z,24.30
2018-06-14T15:16:21.832Z,24.30
2018-06-14T15:18:50.288Z,24.30
2018-06-14T15:21:18.749Z,24.30
2018-06-14T15:23:47.115Z,24.30
2018-06-14T15:26:15.547Z,24.30
2018-06-14T15:28:43.990Z,24.30
2018-06-14T15:33:40.698Z,24.30
2018-06-14T15:36:09.018Z,24.30
2018-06-14T15:38:37.431Z,24.30
2018-06-14T15:41:05.801Z,24.30
2018-06-14T15:43:34.184Z,24.30
2018-06-14T15:46:02.704Z,24.30
2018-06-14T15:48:31.154Z,24.20
2018-06-14T15:50:59.543Z,24.30
2018-06-14T15:53:28.005Z,24.30
2018-06-14T15:56:14.110Z,24.30
2018-06-14T15:58:42.657Z,24.30
2018-06-14T16:01:11.109Z,24.30
2018-06-14T16:03:39.610Z,24.30
2018-06-14T16:06:08.157Z,24.30
2018-06-14T16:08:36.707Z,24.30
2018-06-14T16:11:05.186Z,24.30
2018-06-14T16:13:33.683Z,24.30
2018-06-14T16:16:02.140Z,24.30
2018-06-14T16:18:30.546Z,24.30
2018-06-14T16:20:58.957Z,24.30
2018-06-14T16:23:27.385Z,24.30
2018-06-14T16:25:56.076Z,24.40
2018-06-14T16:28:24.726Z,24.40
2018-06-14T16:30:53.196Z,24.40
2018-06-14T16:33:21.565Z,24.50
2018-06-14T16:35:50.104Z,24.50
2018-06-14T16:38:18.482Z,24.50
2018-06-14T16:40:46.880Z,24.50
2018-06-14T16:43:15.439Z,24.50
2018-06-14T16:45:43.904Z,24.50
2018-06-14T16:48:12.226Z,24.50
2018-06-14T16:50:40.680Z,24.50
2018-06-14T16:53:09.066Z,24.50
2018-06-14T16:55:37.497Z,24.50
2018-06-14T16:58:06.139Z,24.50
2018-06-14T17:00:34.526Z,24.50
2018-06-14T17:03:02.920Z,24.50
2018-06-14T17:05:31.363Z,24.50
2018-06-14T17:07:59.881Z,24.50
2018-06-14T17:10:28.274Z,24.50
2018-06-14T17:12:56.694Z,24.50
2018-06-14T17:15:25.440Z,24.50
2018-06-14T17:17:53.892Z,24.50
2018-06-14T17:20:22.357Z,24.50
2018-06-14T17:22:50.903Z,24.50
2018-06-14T17:25:19.284Z,24.50
2018-06-14T17:27:47.697Z,24.50
2018-06-14T17:30:16.102Z,24.50
2018-06-14T17:32:44.499Z,24.50
2018-06-14T17:35:13.117Z,24.50
2018-06-14T17:37:41.506Z,24.40
2018-06-14T17:40:09.887Z,24.50
2018-06-14T17:42:38.539Z,24.50
2018-06-14T17:47:35.139Z,24.50
2018-06-14T17:50:03.581Z,24.40
2018-06-14T17:52:31.965Z,24.40
2018-06-14T17:57:28.495Z,24.40
2018-06-14T17:59:56.964Z,24.40
2018-06-14T18:02:25.421Z,24.40
2018-06-14T18:04:53.774Z,24.40
2018-06-14T18:07:22.186Z,24.40
2018-06-14T18:09:50.670Z,24.40
2018-06-14T18:12:19.114Z,24.40
2018-06-14T18:14:47.473Z,24.40
2018-06-14T18:17:17.040Z,24.40
2018-06-14T18:19:45.566Z,24.40
2018-06-14T18:27:10.337Z,24.40
2018-06-14T18:29:38.762Z,24.40
2018-06-14T18:32:07.246Z,24.40
2018-06-14T18:37:03.872Z,24.40
2018-06-14T18:39:32.308Z,24.40
2018-06-14T18:42:00.700Z,24.40
2018-06-14T18:44:29.212Z,24.40
2018-06-14T18:46:57.774Z,24.40
2018-06-14T18:49:26.164Z,24.40
2018-06-14T18:51:54.495Z,24.40
2018-06-14T18:54:23.211Z,24.40
2018-06-14T18:56:51.714Z,24.40
2018-06-14T18:59:20.198Z,24.40
2018-06-14T19:01:48.776Z,24.40
2018-06-14T19:04:17.179Z,24.50
2018-06-14T19:06:45.643Z,24.40
2018-06-14T19:09:14.018Z,24.40
2018-06-14T19:11:42.452Z,24.40
2018-06-14T19:14:10.837Z,24.50
2018-06-14T19:16:39.458Z,24.40
2018-06-14T19:19:07.873Z,24.50
2018-06-14T19:21:36.393Z,24.50
2018-06-14T19:24:04.898Z,24.50
2018-06-14T19:26:33.386Z,24.50
2018-06-14T19:29:01.791Z,24.40
2018-06-14T19:31:30.316Z,24.50
2018-06-14T19:33:58.791Z,24.50
2018-06-14T19:36:27.156Z,24.40
2018-06-14T19:38:55.534Z,24.50
2018-06-14T19:41:23.912Z,24.50
2018-06-14T19:43:52.344Z,24.50
2018-06-14T19:46:20.840Z,24.50
2018-06-14T19:48:49.401Z,24.50
2018-06-14T19:51:17.810Z,24.50
2018-06-14T19:53:46.246Z,24.50
2018-06-14T19:56:14.680Z,24.50
2018-06-14T19:58:43.638Z,24.50
2018-06-14T20:01:12.108Z,24.40
2018-06-14T20:03:40.706Z,24.40
2018-06-14T20:06:09.217Z,24.50
2018-06-14T20:08:37.731Z,24.50
2018-06-14T20:11:06.242Z,24.50
2018-06-14T20:13:34.658Z,24.40
2018-06-14T20:18:31.484Z,24.40
2018-06-14T20:21:00.065Z,24.50
2018-06-14T20:23:28.320Z,24.40
2018-06-14T20:25:56.654Z,24.40
2018-06-14T20:28:25.031Z,24.40
2018-06-14T20:30:53.415Z,24.40
2018-06-14T20:33:21.818Z,24.40
2018-06-14T20:35:50.580Z,24.40
2018-06-14T20:38:18.930Z,24.40
2018-06-14T20:40:47.340Z,24.40
2018-06-14T20:43:15.702Z,24.40
2018-06-14T20:45:44.117Z,24.40
2018-06-14T20:48:12.504Z,24.40
2018-06-14T20:50:40.949Z,24.40
2018-06-14T20:53:09.315Z,24.40
2018-06-14T20:55:44.288Z,24.40
2018-06-14T20:58:12.701Z,24.40
2018-06-14T21:00:41.032Z,24.40
2018-06-14T21:03:09.526Z,24.40
2018-06-14T21:05:38.024Z,24.40
2018-06-14T21:08:06.444Z,24.40
2018-06-14T21:10:34.887Z,24.40
2018-06-14T21:13:03.255Z,24.40
2018-06-14T21:15:31.611Z,24.40
2018-06-14T21:18:00.016Z,24.40
2018-06-14T21:20:28.368Z,24.40
2018-06-14T21:22:56.873Z,24.40
2018-06-14T21:25:25.382Z,24.40
2018-06-14T21:27:54.119Z,24.40
2018-06-14T21:30:22.516Z,24.40
2018-06-14T21:32:50.908Z,24.40
2018-06-14T21:35:19.283Z,24.40
2018-06-14T21:37:47.633Z,24.40
2018-06-14T21:40:16.028Z,24.40
2018-06-14T21:42:44.472Z,24.40
2018-06-14T21:47:40.947Z,24.40
2018-06-14T21:50:09.307Z,24.40
2018-06-14T21:52:37.684Z,24.40
2018-06-14T21:55:06.143Z,24.40
2018-06-14T21:57:34.585Z,24.40
2018-06-14T22:00:02.975Z,24.40
2018-06-14T22:02:31.465Z,24.40
2018-06-14T22:04:59.938Z,24.30
2018-06-14T22:07:28.418Z,24.40
2018-06-14T22:09:56.803Z,24.30
2018-06-14T22:12:25.265Z,24.30
2018-06-14T22:14:53.673Z,24.40
2018-06-14T22:17:22.065Z,24.30
2018-06-14T22:19:50.459Z,24.30
2018-06-14T22:22:18.951Z,24.30
2018-06-14T22:24:47.402Z,24.30
2018-06-14T22:27:15.767Z,24.30
2018-06-14T22:29:44.156Z,24.30
2018-06-14T22:32:12.555Z,24.30
2018-06-14T22:34:52.287Z,24.30
2018-06-14T22:37:20.642Z,24.30
2018-06-14T22:39:49.061Z,24.30
2018-06-14T22:42:17.565Z,24.30
2018-06-14T22:44:46.059Z,24.30
2018-06-14T22:47:14.441Z,24.30
2018-06-14T22:49:42.797Z,24.30
2018-06-14T22:52:50.083Z,24.30
2018-06-14T22:55:19.379Z,24.30
2018-06-14T22:57:48.198Z,24.30
2018-06-14T23:00:27.904Z,24.30
2018-06-14T23:02:56.317Z,24.30
2018-06-14T23:05:24.700Z,24.30
2018-06-14T23:07:53.129Z,24.30
2018-06-14T23:10:35.369Z,24.30
2018-06-14T23:13:04.216Z,24.30
2018-06-14T23:15:32.627Z,24.30
2018-06-14T23:18:01.429Z,24.30
2018-06-14T23:20:31.152Z,24.30
2018-06-14T23:23:00.217Z,24.20
2018-06-14T23:25:29.393Z,24.20
2018-06-14T23:27:57.968Z,24.20
2018-06-14T23:30:26.387Z,24.20
2018-06-14T23:32:54.792Z,24.20
2018-06-14T23:35:23.308Z,24.20
2018-06-14T23:37:51.755Z,24.20
2018-06-14T23:40:20.135Z,24.20
2018-06-14T23:42:48.707Z,24.20
2018-06-14T23:45:17.162Z,24.20
2018-06-14T23:47:45.581Z,24.20
2018-06-14T23:50:14.106Z,24.20
2018-06-14T23:52:42.532Z,24.20
2018-06-14T23:55:10.921Z,24.20
2018-06-14T23:57:39.292Z,24.20
